createdAt,value
2019-02-09T00:00:13.697Z,73.30
2019-02-09T00:01:14.139Z,73.10
2019-02-09T00:02:14.580Z,73.19
2019-02-09T00:03:15.009Z,73.50
2019-02-09T00:04:15.442Z,73.71
2019-02-09T00:05:15.899Z,74.12
2019-02-09T00:06:16.348Z,73.91
2019-02-09T00:07:16.776Z,74.02
2019-02-09T00:08:17.229Z,74.67
2019-02-09T00:09:17.672Z,74.53
2019-02-09T00:10:19.139Z,75.35
2019-02-09T00:11:19.564Z,75.18
2019-02-09T00:12:20.055Z,75.45
2019-02-09T00:13:21.372Z,75.38
2019-02-09T00:14:21.828Z,75.80
2019-02-09T00:15:22.304Z,75.59
2019-02-09T00:16:22.752Z,75.76
2019-02-09T00:17:23.190Z,76.07
2019-02-09T00:18:23.617Z,76.48
2019-02-09T00:19:24.059Z,76.28
2019-02-09T00:20:24.517Z,76.07
2019-02-09T00:21:24.945Z,76.68
2019-02-09T00:22:25.374Z,76.68
2019-02-09T00:23:25.800Z,76.28
2019-02-09T00:24:27.242Z,76.48
2019-02-09T00:25:28.743Z,77.13
2019-02-09T00:26:29.186Z,76.89
2019-02-09T00:27:29.620Z,77.13
2019-02-09T00:28:30.054Z,77.40
2019-02-09T00:29:30.495Z,77.20
2019-02-09T00:30:31.953Z,76.89
2019-02-09T00:31:32.380Z,76.79
2019-02-09T00:32:32.827Z,77.13
2019-02-09T00:33:33.265Z,77.61
2019-02-09T00:34:33.702Z,78.02
2019-02-09T00:35:34.154Z,78.23
2019-02-09T00:36:35.381Z,78.02
2019-02-09T00:37:35.817Z,78.02
2019-02-09T00:38:36.255Z,78.16
2019-02-09T00:39:37.871Z,78.53
2019-02-09T00:40:38.500Z,78.36
2019-02-09T00:41:38.938Z,78.27
2019-02-09T00:42:39.377Z,78.27
2019-02-09T00:43:39.815Z,78.16
2019-02-09T00:44:40.250Z,78.78
2019-02-09T00:45:40.953Z,78.57
2019-02-09T00:46:41.379Z,78.98
2019-02-09T00:47:41.812Z,78.98
2019-02-09T00:48:43.079Z,79.49
2019-02-09T00:49:43.544Z,79.39
2019-02-09T00:50:44.996Z,80.21
2019-02-09T00:51:45.423Z,80.21
2019-02-09T00:52:45.853Z,80.11
2019-02-09T00:53:46.284Z,80.32
2019-02-09T00:54:47.726Z,80.18
2019-02-09T00:55:48.165Z,79.66
2019-02-09T00:56:48.602Z,79.87
2019-02-09T00:57:49.042Z,79.60
2019-02-09T00:58:49.823Z,80.01
2019-02-09T00:59:54.294Z,80.42
2019-02-09T01:00:54.972Z,80.11
2019-02-09T01:01:55.421Z,79.70
2019-02-09T01:02:55.858Z,80.01
2019-02-09T01:03:56.214Z,80.42
2019-02-09T01:04:56.653Z,80.21
2019-02-09T01:05:57.099Z,80.63
2019-02-09T01:06:57.539Z,80.42
2019-02-09T01:07:57.967Z,80.32
2019-02-09T01:08:58.413Z,80.52
2019-02-09T01:09:59.670Z,80.42
2019-02-09T01:11:00.129Z,80.63
2019-02-09T01:12:00.562Z,80.73
2019-02-09T01:13:01.002Z,81.04
2019-02-09T01:14:01.439Z,80.83
2019-02-09T01:15:01.872Z,81.24
2019-02-09T01:16:02.927Z,80.83
2019-02-09T01:17:03.369Z,81.04
2019-02-09T01:18:03.805Z,81.55
2019-02-09T01:19:04.257Z,81.65
2019-02-09T01:20:04.693Z,80.63
2019-02-09T01:21:05.145Z,81.45
2019-02-09T01:22:05.592Z,81.24
2019-02-09T01:23:06.079Z,81.34
2019-02-09T01:24:06.509Z,81.24
2019-02-09T01:25:06.942Z,81.24
2019-02-09T01:26:07.394Z,81.24
2019-02-09T01:27:08.832Z,81.55
2019-02-09T01:28:09.276Z,81.24
2019-02-09T01:29:09.721Z,81.45
2019-02-09T01:30:10.151Z,81.24
2019-02-09T01:31:10.604Z,81.55
2019-02-09T01:32:11.039Z,81.24
2019-02-09T01:33:11.478Z,81.86
2019-02-09T01:34:11.918Z,81.96
2019-02-09T01:35:12.374Z,81.96
2019-02-09T01:36:12.817Z,81.76
2019-02-09T01:37:13.261Z,81.92
2019-02-09T01:38:13.692Z,81.92
2019-02-09T01:39:14.143Z,81.86
2019-02-09T01:40:14.583Z,81.65
2019-02-09T01:41:15.043Z,81.71
2019-02-09T01:42:15.475Z,81.65
2019-02-09T01:43:15.922Z,81.96
2019-02-09T01:44:16.353Z,81.96
2019-02-09T01:45:16.783Z,81.92
2019-02-09T01:46:17.252Z,81.92
2019-02-09T01:47:17.704Z,81.76
2019-02-09T01:48:18.145Z,81.96
2019-02-09T01:49:18.579Z,81.86
2019-02-09T01:50:19.011Z,81.76
2019-02-09T01:51:19.469Z,82.06
2019-02-09T01:52:19.897Z,81.96
2019-02-09T01:53:20.332Z,81.86
2019-02-09T01:54:20.763Z,81.86
2019-02-09T01:55:21.203Z,81.96
2019-02-09T01:56:21.650Z,81.86
2019-02-09T01:57:22.080Z,82.06
2019-02-09T01:58:22.509Z,82.27
2019-02-09T01:59:22.951Z,81.86
2019-02-09T02:00:23.388Z,81.86
2019-02-09T02:01:23.834Z,81.96
2019-02-09T02:02:24.282Z,81.86
2019-02-09T02:03:24.715Z,81.76
2019-02-09T02:04:25.149Z,81.96
2019-02-09T02:05:25.588Z,82.27
2019-02-09T02:06:26.036Z,82.27
2019-02-09T02:07:26.474Z,82.37
2019-02-09T02:08:26.901Z,82.57
2019-02-09T02:09:27.340Z,82.47
2019-02-09T02:10:27.775Z,82.57
2019-02-09T02:11:28.224Z,82.27
2019-02-09T02:12:28.655Z,82.47
2019-02-09T02:13:29.090Z,82.47
2019-02-09T02:14:29.538Z,82.89
2019-02-09T02:15:29.970Z,82.57
2019-02-09T02:16:30.496Z,82.89
2019-02-09T02:17:30.930Z,82.89
2019-02-09T02:18:31.382Z,82.47
2019-02-09T02:19:31.821Z,82.57
2019-02-09T02:20:32.259Z,82.89
2019-02-09T02:21:32.701Z,82.37
2019-02-09T02:22:34.147Z,82.78
2019-02-09T02:23:34.577Z,82.78
2019-02-09T02:24:35.019Z,82.78
2019-02-09T02:25:35.466Z,82.99
2019-02-09T02:26:35.911Z,82.89
2019-02-09T02:27:36.349Z,82.89
2019-02-09T02:28:36.786Z,82.99
2019-02-09T02:29:37.224Z,82.99
2019-02-09T02:30:37.655Z,82.99
2019-02-09T02:31:38.113Z,82.89
2019-02-09T02:32:38.546Z,82.99
2019-02-09T02:33:38.991Z,83.09
2019-02-09T02:34:39.430Z,83.09
2019-02-09T02:35:39.899Z,82.78
2019-02-09T02:36:40.389Z,82.99
2019-02-09T02:37:40.985Z,82.89
2019-02-09T02:38:41.423Z,82.92
2019-02-09T02:39:41.854Z,82.99
2019-02-09T02:40:42.282Z,83.03
2019-02-09T02:41:42.743Z,83.19
2019-02-09T02:42:43.184Z,83.09
2019-02-09T02:43:43.625Z,83.09
2019-02-09T02:44:44.052Z,83.29
2019-02-09T02:45:44.486Z,82.99
2019-02-09T02:46:44.955Z,82.78
2019-02-09T02:47:45.398Z,83.09
2019-02-09T02:48:45.844Z,82.99
2019-02-09T02:49:46.281Z,83.09
2019-02-09T02:50:46.711Z,83.19
2019-02-09T02:51:47.162Z,82.99
2019-02-09T02:52:47.588Z,83.09
2019-02-09T02:53:48.028Z,83.40
2019-02-09T02:54:50.491Z,83.09
2019-02-09T02:55:50.931Z,83.40
2019-02-09T02:56:51.375Z,83.29
2019-02-09T02:57:51.804Z,83.19
2019-02-09T02:58:52.258Z,83.29
2019-02-09T02:59:52.697Z,83.09
2019-02-09T03:00:54.132Z,82.99
2019-02-09T03:01:54.575Z,83.19
2019-02-09T03:02:55.012Z,83.15
2019-02-09T03:03:55.451Z,83.19
2019-02-09T03:04:55.896Z,83.29
2019-02-09T03:05:56.331Z,83.09
2019-02-09T03:06:56.789Z,82.99
2019-02-09T03:07:57.229Z,82.99
2019-02-09T03:08:57.672Z,82.99
2019-02-09T03:09:58.096Z,82.78
2019-02-09T03:10:58.538Z,83.40
2019-02-09T03:11:58.998Z,82.99
2019-02-09T03:12:59.442Z,83.19
2019-02-09T03:13:59.887Z,83.19
2019-02-09T03:15:00.411Z,83.19
2019-02-09T03:16:01.036Z,83.09
2019-02-09T03:17:01.488Z,83.19
2019-02-09T03:18:01.922Z,83.09
2019-02-09T03:19:02.364Z,83.29
2019-02-09T03:20:02.800Z,83.09
2019-02-09T03:21:04.248Z,83.33
2019-02-09T03:22:04.698Z,83.09
2019-02-09T03:23:05.139Z,83.29
2019-02-09T03:24:05.568Z,83.29
2019-02-09T03:25:06.001Z,83.29
2019-02-09T03:26:06.432Z,83.29
2019-02-09T03:27:06.885Z,82.99
2019-02-09T03:28:07.358Z,83.40
2019-02-09T03:29:07.778Z,83.19
2019-02-09T03:30:08.231Z,82.89
2019-02-09T03:31:08.676Z,83.09
2019-02-09T03:32:11.036Z,82.99
2019-02-09T03:33:11.616Z,83.09
2019-02-09T03:34:12.065Z,83.19
2019-02-09T03:35:12.510Z,83.09
2019-02-09T03:36:12.945Z,83.19
2019-02-09T03:37:13.397Z,83.13
2019-02-09T03:38:13.828Z,83.50
2019-02-09T03:39:14.267Z,83.61
2019-02-09T03:40:14.717Z,83.70
2019-02-09T03:41:15.186Z,83.50
2019-02-09T03:42:15.645Z,83.40
2019-02-09T03:43:16.079Z,83.50
2019-02-09T03:44:16.518Z,83.40
2019-02-09T03:45:16.965Z,83.40
2019-02-09T03:46:17.398Z,83.29
2019-02-09T03:47:18.839Z,83.61
2019-02-09T03:48:19.283Z,83.46
2019-02-09T03:49:19.721Z,83.50
2019-02-09T03:50:20.160Z,83.29
2019-02-09T03:51:20.606Z,83.67
2019-02-09T03:52:21.055Z,83.36
2019-02-09T03:53:21.504Z,83.19
2019-02-09T03:54:21.945Z,83.36
2019-02-09T03:55:22.386Z,83.67
2019-02-09T03:56:22.817Z,83.56
2019-02-09T03:57:24.282Z,83.56
2019-02-09T03:58:24.714Z,83.46
2019-02-09T03:59:25.154Z,83.56
2019-02-09T04:00:25.589Z,83.46
2019-02-09T04:01:26.045Z,83.67
2019-02-09T04:02:26.501Z,83.56
2019-02-09T04:03:26.941Z,83.46
2019-02-09T04:04:27.378Z,83.56
2019-02-09T04:05:27.827Z,83.67
2019-02-09T04:06:28.259Z,83.46
2019-02-09T04:07:28.725Z,83.77
2019-02-09T04:08:29.412Z,83.36
2019-02-09T04:09:29.854Z,83.15
2019-02-09T04:10:30.311Z,83.56
2019-02-09T04:11:30.758Z,83.46
2019-02-09T04:12:31.219Z,83.56
2019-02-09T04:13:31.655Z,83.36
2019-02-09T04:14:32.112Z,83.56
2019-02-09T04:15:32.549Z,83.67
2019-02-09T04:16:32.983Z,83.67
2019-02-09T04:17:33.450Z,83.56
2019-02-09T04:18:33.901Z,83.46
2019-02-09T04:19:34.341Z,83.36
2019-02-09T04:20:34.778Z,83.46
2019-02-09T04:21:35.214Z,83.46
2019-02-09T04:22:35.666Z,83.56
2019-02-09T04:23:36.111Z,83.56
2019-02-09T04:24:36.551Z,83.56
2019-02-09T04:25:36.990Z,83.56
2019-02-09T04:26:37.420Z,83.56
2019-02-09T04:27:37.920Z,83.46
2019-02-09T04:28:38.353Z,83.56
2019-02-09T04:29:39.811Z,83.56
2019-02-09T04:30:40.250Z,83.46
2019-02-09T04:31:41.687Z,83.67
2019-02-09T04:32:42.145Z,83.46
2019-02-09T04:33:44.602Z,83.77
2019-02-09T04:34:45.038Z,83.77
2019-02-09T04:35:46.472Z,83.87
2019-02-09T04:36:46.916Z,83.67
2019-02-09T04:37:48.381Z,83.46
2019-02-09T04:38:48.820Z,83.46
2019-02-09T04:39:49.275Z,83.56
2019-02-09T04:40:49.713Z,83.67
2019-02-09T04:41:50.152Z,83.77
2019-02-09T04:42:50.595Z,83.56
2019-02-09T04:43:51.045Z,83.36
2019-02-09T04:44:51.493Z,83.46
2019-02-09T04:45:51.949Z,83.56
2019-02-09T04:46:52.389Z,83.67
2019-02-09T04:47:52.843Z,83.53
2019-02-09T04:48:53.272Z,83.77
2019-02-09T04:49:53.704Z,83.63
2019-02-09T04:50:54.131Z,83.67
2019-02-09T04:51:54.572Z,83.56
2019-02-09T04:52:55.036Z,83.67
2019-02-09T04:53:57.501Z,84.04
2019-02-09T04:54:57.953Z,83.73
2019-02-09T04:55:58.395Z,83.77
2019-02-09T04:56:58.840Z,83.56
2019-02-09T04:57:59.298Z,83.46
2019-02-09T04:58:59.739Z,83.67
2019-02-09T05:00:01.184Z,83.26
2019-02-09T05:01:01.616Z,83.67
2019-02-09T05:02:03.062Z,83.56
2019-02-09T05:03:05.207Z,83.46
2019-02-09T05:04:05.874Z,83.46
2019-02-09T05:05:06.320Z,83.46
2019-02-09T05:06:06.773Z,83.36
2019-02-09T05:07:07.231Z,83.46
2019-02-09T05:08:07.701Z,83.67
2019-02-09T05:09:08.143Z,83.77
2019-02-09T05:10:10.591Z,83.87
2019-02-09T05:11:11.035Z,83.56
2019-02-09T05:12:11.479Z,83.36
2019-02-09T05:13:11.965Z,83.56
2019-02-09T05:14:12.396Z,83.56
2019-02-09T05:15:12.853Z,83.56
2019-02-09T05:16:14.292Z,83.56
2019-02-09T05:17:14.729Z,83.36
2019-02-09T05:18:15.186Z,83.67
2019-02-09T05:19:15.627Z,83.67
2019-02-09T05:20:16.079Z,83.56
2019-02-09T05:21:16.519Z,83.26
2019-02-09T05:22:17.954Z,83.46
2019-02-09T05:23:18.406Z,83.56
2019-02-09T05:24:25.646Z,83.56
2019-02-09T05:25:26.087Z,83.26
2019-02-09T05:26:26.543Z,83.15
2019-02-09T05:27:26.990Z,82.95
2019-02-09T05:28:28.488Z,83.67
2019-02-09T05:29:28.954Z,83.46
2019-02-09T05:30:30.401Z,83.46
2019-02-09T05:31:30.870Z,83.15
2019-02-09T05:32:31.333Z,83.56
2019-02-09T05:33:31.779Z,82.95
2019-02-09T05:34:33.226Z,83.15
2019-02-09T05:35:33.674Z,83.56
2019-02-09T05:36:34.131Z,83.26
2019-02-09T05:37:34.568Z,83.05
2019-02-09T05:38:35.024Z,83.15
2019-02-09T05:39:35.466Z,82.95
2019-02-09T05:40:35.896Z,83.05
2019-02-09T05:41:36.355Z,83.05
2019-02-09T05:42:36.798Z,83.26
2019-02-09T05:43:37.244Z,83.19
2019-02-09T05:44:37.686Z,82.99
2019-02-09T05:45:38.473Z,83.15
2019-02-09T05:46:38.921Z,82.99
2019-02-09T05:47:39.354Z,83.09
2019-02-09T05:48:39.822Z,83.09
2019-02-09T05:49:40.260Z,83.19
2019-02-09T05:50:40.706Z,83.26
2019-02-09T05:51:41.151Z,83.29
2019-02-09T05:52:42.599Z,83.15
2019-02-09T05:53:43.063Z,83.26
2019-02-09T05:54:43.501Z,83.15
2019-02-09T05:55:43.955Z,83.19
2019-02-09T05:56:46.399Z,83.19
2019-02-09T05:57:46.839Z,83.40
2019-02-09T05:58:48.326Z,83.05
2019-02-09T05:59:48.773Z,83.19
2019-02-09T06:00:50.218Z,82.99
2019-02-09T06:01:50.644Z,83.05
2019-02-09T06:02:53.088Z,82.95
2019-02-09T06:03:53.559Z,82.95
2019-02-09T06:04:53.988Z,82.84
2019-02-09T06:05:54.431Z,83.15
2019-02-09T06:06:55.874Z,83.05
2019-02-09T06:07:56.312Z,82.95
2019-02-09T06:08:57.817Z,82.95
2019-02-09T06:09:58.252Z,82.95
2019-02-09T06:10:58.702Z,83.05
2019-02-09T06:11:59.147Z,83.15
2019-02-09T06:13:06.132Z,83.15
2019-02-09T06:14:06.590Z,83.05
2019-02-09T06:15:07.028Z,83.05
2019-02-09T06:16:07.480Z,83.12
2019-02-09T06:17:08.932Z,83.05
2019-02-09T06:18:09.383Z,82.64
2019-02-09T06:19:11.850Z,82.95
2019-02-09T06:20:12.288Z,82.84
2019-02-09T06:21:12.736Z,82.95
2019-02-09T06:22:13.183Z,82.84
2019-02-09T06:23:13.631Z,83.15
2019-02-09T06:24:14.110Z,83.05
2019-02-09T06:25:21.139Z,82.84
2019-02-09T06:26:21.603Z,83.05
2019-02-09T06:27:23.053Z,83.05
2019-02-09T06:28:23.491Z,83.15
2019-02-09T06:29:24.943Z,83.15
2019-02-09T06:30:25.446Z,83.05
2019-02-09T06:31:25.904Z,83.05
2019-02-09T06:32:26.336Z,83.12
2019-02-09T06:33:26.776Z,82.91
2019-02-09T06:34:27.271Z,82.75
2019-02-09T06:35:27.701Z,83.01
2019-02-09T06:36:28.141Z,83.22
2019-02-09T06:37:28.586Z,83.12
2019-02-09T06:38:29.021Z,82.91
2019-02-09T06:39:29.496Z,82.81
2019-02-09T06:40:29.923Z,82.91
2019-02-09T06:41:30.362Z,82.91
2019-02-09T06:42:30.798Z,82.81
2019-02-09T06:43:31.231Z,82.81
2019-02-09T06:44:31.683Z,82.70
2019-02-09T06:45:32.110Z,82.91
2019-02-09T06:46:32.558Z,82.70
2019-02-09T06:47:33.021Z,82.81
2019-02-09T06:48:33.451Z,82.29
2019-02-09T06:49:33.907Z,81.99
2019-02-09T06:50:34.360Z,82.09
2019-02-09T06:51:34.808Z,82.19
2019-02-09T06:52:35.271Z,82.33
2019-02-09T06:53:35.713Z,82.33
2019-02-09T06:54:36.167Z,82.54
2019-02-09T06:55:37.609Z,82.29
2019-02-09T06:56:38.049Z,82.13
2019-02-09T06:57:39.480Z,82.33
2019-02-09T06:58:39.923Z,82.23
2019-02-09T06:59:41.369Z,82.13
2019-02-09T07:00:41.802Z,82.09
2019-02-09T07:01:48.525Z,82.19
2019-02-09T07:02:48.641Z,82.19
2019-02-09T07:03:50.098Z,82.43
2019-02-09T07:04:50.536Z,81.88
2019-02-09T07:05:50.972Z,81.68
2019-02-09T07:06:51.401Z,81.88
2019-02-09T07:07:53.845Z,81.78
2019-02-09T07:08:54.312Z,82.19
2019-02-09T07:09:55.755Z,81.99
2019-02-09T07:10:56.185Z,81.99
2019-02-09T07:11:56.625Z,81.88
2019-02-09T07:12:57.063Z,81.78
2019-02-09T07:13:57.537Z,82.19
2019-02-09T07:14:57.970Z,81.88
2019-02-09T07:15:58.411Z,81.74
2019-02-09T07:16:58.865Z,81.74
2019-02-09T07:18:00.308Z,81.95
2019-02-09T07:19:00.767Z,81.64
2019-02-09T07:20:01.206Z,81.34
2019-02-09T07:21:01.639Z,81.34
2019-02-09T07:22:02.073Z,81.16
2019-02-09T07:23:02.499Z,81.13
2019-02-09T07:24:02.962Z,81.34
2019-02-09T07:25:03.401Z,81.13
2019-02-09T07:26:03.832Z,81.37
2019-02-09T07:27:04.263Z,81.64
2019-02-09T07:28:05.709Z,81.88
2019-02-09T07:29:06.172Z,81.74
2019-02-09T07:30:06.622Z,81.85
2019-02-09T07:31:07.062Z,81.85
2019-02-09T07:32:07.500Z,81.64
2019-02-09T07:33:07.936Z,81.13
2019-02-09T07:34:08.384Z,81.54
2019-02-09T07:35:08.820Z,81.34
2019-02-09T07:36:09.254Z,81.23
2019-02-09T07:37:09.688Z,81.13
2019-02-09T07:38:10.124Z,81.13
2019-02-09T07:39:10.596Z,81.13
2019-02-09T07:40:11.037Z,81.43
2019-02-09T07:41:11.464Z,81.43
2019-02-09T07:42:12.049Z,80.99
2019-02-09T07:43:12.540Z,80.99
2019-02-09T07:44:12.999Z,80.58
2019-02-09T07:45:13.431Z,81.29
2019-02-09T07:46:13.873Z,81.20
2019-02-09T07:47:14.319Z,80.68
2019-02-09T07:48:14.767Z,80.47
2019-02-09T07:49:15.215Z,81.09
2019-02-09T07:50:15.654Z,80.64
2019-02-09T07:51:16.097Z,80.44
2019-02-09T07:52:16.540Z,80.44
2019-02-09T07:53:16.977Z,80.13
2019-02-09T07:54:17.450Z,80.33
2019-02-09T07:55:17.886Z,79.72
2019-02-09T07:56:18.451Z,79.62
2019-02-09T07:57:18.894Z,79.45
2019-02-09T07:58:19.446Z,79.75
2019-02-09T07:59:19.912Z,80.17
2019-02-09T08:00:20.382Z,79.52
2019-02-09T08:01:20.816Z,79.24
2019-02-09T08:02:21.248Z,79.24
2019-02-09T08:03:21.688Z,79.52
2019-02-09T08:04:22.218Z,79.21
2019-02-09T08:05:22.655Z,80.03
2019-02-09T08:06:23.102Z,79.41
2019-02-09T08:07:23.530Z,79.07
2019-02-09T08:08:25.041Z,79.21
2019-02-09T08:09:25.590Z,79.93
2019-02-09T08:10:26.026Z,79.38
2019-02-09T08:11:26.482Z,78.90
2019-02-09T08:12:27.012Z,78.39
2019-02-09T08:13:27.909Z,78.39
2019-02-09T08:14:28.367Z,77.87
2019-02-09T08:15:28.873Z,78.59
2019-02-09T08:16:29.313Z,78.59
2019-02-09T08:17:29.780Z,78.35
2019-02-09T08:18:30.228Z,78.45
2019-02-09T08:19:31.782Z,78.05
2019-02-09T08:20:32.215Z,77.84
2019-02-09T08:21:32.782Z,78.25
2019-02-09T08:22:33.213Z,77.64
2019-02-09T08:23:33.710Z,78.05
2019-02-09T08:24:34.173Z,78.05
2019-02-09T08:25:34.752Z,77.53
2019-02-09T08:26:35.188Z,77.53
2019-02-09T08:27:35.685Z,76.81
2019-02-09T08:28:36.124Z,76.72
2019-02-09T08:29:42.714Z,76.92
2019-02-09T08:30:43.162Z,77.02
2019-02-09T08:31:45.643Z,76.72
2019-02-09T08:32:46.080Z,76.72
2019-02-09T08:33:46.513Z,76.61
2019-02-09T08:34:48.061Z,76.88
2019-02-09T08:35:48.494Z,76.23
2019-02-09T08:36:49.055Z,76.54
2019-02-09T08:37:49.514Z,76.34
2019-02-09T08:38:49.986Z,76.37
2019-02-09T08:39:50.431Z,77.15
2019-02-09T08:40:50.857Z,76.64
2019-02-09T08:41:51.337Z,76.84
2019-02-09T08:42:51.775Z,76.95
2019-02-09T08:43:52.206Z,76.54
2019-02-09T08:44:53.770Z,77.15
2019-02-09T08:45:54.198Z,77.15
2019-02-09T08:46:54.640Z,77.05
2019-02-09T08:47:55.083Z,76.75
2019-02-09T08:48:55.524Z,77.15
2019-02-09T08:49:55.990Z,76.50
2019-02-09T08:50:56.434Z,76.13
2019-02-09T08:51:56.869Z,76.43
2019-02-09T08:52:57.412Z,76.54
2019-02-09T08:53:57.870Z,76.84
2019-02-09T08:54:58.333Z,76.54
2019-02-09T08:55:58.777Z,76.95
2019-02-09T08:56:59.225Z,76.34
2019-02-09T08:57:59.654Z,76.81
2019-02-09T08:59:00.104Z,76.81
2019-02-09T09:00:00.572Z,76.50
2019-02-09T09:01:01.008Z,76.61
2019-02-09T09:02:01.448Z,76.91
2019-02-09T09:03:01.887Z,77.22
2019-02-09T09:04:02.338Z,76.98
2019-02-09T09:05:09.526Z,76.88
2019-02-09T09:06:09.282Z,76.26
2019-02-09T09:07:09.755Z,76.16
2019-02-09T09:08:10.188Z,75.85
2019-02-09T09:09:10.708Z,76.40
2019-02-09T09:10:11.151Z,76.71
2019-02-09T09:11:11.580Z,75.85
2019-02-09T09:12:12.016Z,75.14
2019-02-09T09:13:12.464Z,75.27
2019-02-09T09:14:12.923Z,75.68
2019-02-09T09:15:13.388Z,75.89
2019-02-09T09:16:13.840Z,75.17
2019-02-09T09:17:14.378Z,75.27
2019-02-09T09:18:14.833Z,75.45
2019-02-09T09:19:15.297Z,75.45
2019-02-09T09:20:15.733Z,74.32
2019-02-09T09:21:16.155Z,73.68
2019-02-09T09:22:23.116Z,73.23
2019-02-09T09:23:23.536Z,72.48
2019-02-09T09:24:23.984Z,72.58
2019-02-09T09:25:25.530Z,72.38
2019-02-09T09:26:25.959Z,72.28
2019-02-09T09:27:26.389Z,72.14
2019-02-09T09:28:26.813Z,71.94
2019-02-09T09:29:27.233Z,71.73
2019-02-09T09:30:27.696Z,72.45
2019-02-09T09:31:28.119Z,72.86
2019-02-09T09:32:28.986Z,72.79
2019-02-09T09:33:29.447Z,73.30
2019-02-09T09:34:29.874Z,73.30
2019-02-09T09:35:30.323Z,73.50
2019-02-09T09:36:30.894Z,73.40
2019-02-09T09:37:31.328Z,73.13
2019-02-09T09:38:31.826Z,73.30
2019-02-09T09:39:32.279Z,72.89
2019-02-09T09:40:32.755Z,72.89
2019-02-09T09:41:33.185Z,72.72
2019-02-09T09:42:33.638Z,72.79
2019-02-09T09:43:34.225Z,72.72
2019-02-09T09:44:34.698Z,72.62
2019-02-09T09:45:35.141Z,72.21
2019-02-09T09:46:35.572Z,72.45
2019-02-09T09:47:36.003Z,72.52
2019-02-09T09:48:36.435Z,72.92
2019-02-09T09:49:36.908Z,73.16
2019-02-09T09:50:37.365Z,73.27
2019-02-09T09:51:37.796Z,73.77
2019-02-09T09:52:40.334Z,73.50
2019-02-09T09:53:40.783Z,72.92
2019-02-09T09:54:41.212Z,72.92
2019-02-09T09:55:41.676Z,73.68
2019-02-09T09:56:43.195Z,73.27
2019-02-09T09:57:43.627Z,73.36
2019-02-09T09:58:44.063Z,73.27
2019-02-09T09:59:44.500Z,73.47
2019-02-09T10:00:44.962Z,73.78
2019-02-09T10:01:45.424Z,73.47
2019-02-09T10:02:45.849Z,74.08
2019-02-09T10:03:46.308Z,73.88
2019-02-09T10:04:46.733Z,73.88
2019-02-09T10:05:47.311Z,73.78
2019-02-09T10:06:47.746Z,73.88
2019-02-09T10:07:48.178Z,73.78
2019-02-09T10:08:48.605Z,73.27
2019-02-09T10:09:49.123Z,73.57
2019-02-09T10:10:49.589Z,73.33
2019-02-09T10:11:50.089Z,72.48
2019-02-09T10:12:50.517Z,71.94
2019-02-09T10:13:52.009Z,72.00
2019-02-09T10:14:52.443Z,71.50
2019-02-09T10:15:52.899Z,70.92
2019-02-09T10:16:53.334Z,70.75
2019-02-09T10:17:53.754Z,70.98
2019-02-09T10:18:54.228Z,71.59
2019-02-09T10:19:54.714Z,72.21
2019-02-09T10:20:55.195Z,72.00
2019-02-09T10:21:55.629Z,71.39
2019-02-09T10:22:56.089Z,71.05
2019-02-09T10:23:56.587Z,70.88
2019-02-09T10:24:57.021Z,71.05
2019-02-09T10:25:59.499Z,70.40
2019-02-09T10:26:59.932Z,69.25
2019-02-09T10:28:00.401Z,68.57
2019-02-09T10:29:01.871Z,68.85
2019-02-09T10:30:02.360Z,68.95
2019-02-09T10:31:02.791Z,68.24
2019-02-09T10:32:03.232Z,68.17
2019-02-09T10:33:03.726Z,68.27
2019-02-09T10:34:04.176Z,68.37
2019-02-09T10:35:04.605Z,68.44
2019-02-09T10:36:08.199Z,68.44
2019-02-09T10:37:08.711Z,68.17
2019-02-09T10:38:09.144Z,68.13
2019-02-09T10:39:09.583Z,66.68
2019-02-09T10:40:10.067Z,66.71
2019-02-09T10:41:10.518Z,66.88
2019-02-09T10:42:10.941Z,66.85
2019-02-09T10:43:11.378Z,66.41
2019-02-09T10:44:11.817Z,65.77
2019-02-09T10:45:12.258Z,65.97
2019-02-09T10:46:12.718Z,65.36
2019-02-09T10:47:13.151Z,65.77
2019-02-09T10:48:13.587Z,65.33
2019-02-09T10:49:14.106Z,65.71
2019-02-09T10:50:14.557Z,65.48
2019-02-09T10:51:15.001Z,64.46
2019-02-09T10:52:15.447Z,64.76
2019-02-09T10:53:15.871Z,64.87
2019-02-09T10:54:16.302Z,64.62
2019-02-09T10:55:16.725Z,64.15
2019-02-09T10:56:17.183Z,64.45
2019-02-09T10:57:17.610Z,65.09
2019-02-09T10:58:18.051Z,65.19
2019-02-09T10:59:18.575Z,64.51
2019-02-09T11:00:19.002Z,64.38
2019-02-09T11:01:19.553Z,64.07
2019-02-09T11:02:20.000Z,63.67
2019-02-09T11:03:20.560Z,64.31
2019-02-09T11:04:20.998Z,63.90
2019-02-09T11:05:21.418Z,63.77
2019-02-09T11:06:21.858Z,63.36
2019-02-09T11:07:22.293Z,63.26
2019-02-09T11:08:22.756Z,62.65
2019-02-09T11:09:23.257Z,62.88
2019-02-09T11:10:23.692Z,63.16
2019-02-09T11:11:24.142Z,63.06
2019-02-09T11:12:24.568Z,62.82
2019-02-09T11:13:25.027Z,61.68
2019-02-09T11:14:25.453Z,61.71
2019-02-09T11:15:25.888Z,61.63
2019-02-09T11:16:26.349Z,61.53
2019-02-09T11:17:26.816Z,61.20
2019-02-09T11:18:27.239Z,60.53
2019-02-09T11:19:27.731Z,60.83
2019-02-09T11:20:28.162Z,61.55
2019-02-09T11:21:28.618Z,60.94
2019-02-09T11:22:29.059Z,61.44
2019-02-09T11:23:29.493Z,61.88
2019-02-09T11:24:30.016Z,61.57
2019-02-09T11:25:30.456Z,62.41
2019-02-09T11:26:30.898Z,62.08
2019-02-09T11:27:31.325Z,61.14
2019-02-09T11:28:31.763Z,61.07
2019-02-09T11:29:32.194Z,60.97
2019-02-09T11:30:32.632Z,60.79
2019-02-09T11:31:33.090Z,59.88
2019-02-09T11:32:33.535Z,60.41
2019-02-09T11:33:34.068Z,60.64
2019-02-09T11:34:34.500Z,60.75
2019-02-09T11:35:34.944Z,60.64
2019-02-09T11:36:35.403Z,59.47
2019-02-09T11:37:35.868Z,58.54
2019-02-09T11:38:36.299Z,56.70
2019-02-09T11:39:36.741Z,57.20
2019-02-09T11:40:37.183Z,56.49
2019-02-09T11:41:37.637Z,57.10
2019-02-09T11:42:38.074Z,57.10
2019-02-09T11:43:38.517Z,56.74
2019-02-09T11:44:41.246Z,55.55
2019-02-09T11:45:41.850Z,55.98
2019-02-09T11:46:42.317Z,56.18
2019-02-09T11:47:42.753Z,56.61
2019-02-09T11:48:43.185Z,56.64
2019-02-09T11:49:44.340Z,56.01
2019-02-09T11:50:44.878Z,55.30
2019-02-09T11:51:45.327Z,56.92
2019-02-09T11:52:45.765Z,56.13
2019-02-09T11:53:46.214Z,56.34
2019-02-09T11:54:46.796Z,56.26
2019-02-09T11:55:47.234Z,56.49
2019-02-09T11:56:47.784Z,56.46
2019-02-09T11:57:48.996Z,55.25
2019-02-09T11:58:49.602Z,56.46
2019-02-09T11:59:50.081Z,56.36
2019-02-09T12:00:50.513Z,56.67
2019-02-09T12:01:52.008Z,56.90
2019-02-09T12:02:52.525Z,56.92
2019-02-09T12:03:53.019Z,57.76
2019-02-09T12:04:53.452Z,58.58
2019-02-09T12:05:53.887Z,57.68
2019-02-09T12:06:54.348Z,57.71
2019-02-09T12:07:54.888Z,57.31
2019-02-09T12:08:55.321Z,56.60
2019-02-09T12:09:55.746Z,56.80
2019-02-09T12:10:56.173Z,56.73
2019-02-09T12:11:56.618Z,58.04
2019-02-09T12:12:57.052Z,57.87
2019-02-09T12:13:57.491Z,57.74
2019-02-09T12:14:57.919Z,57.84
2019-02-09T12:15:58.353Z,57.95
2019-02-09T12:16:58.914Z,57.23
2019-02-09T12:17:59.374Z,57.21
2019-02-09T12:18:59.810Z,56.70
2019-02-09T12:20:00.285Z,56.73
2019-02-09T12:21:00.815Z,56.93
2019-02-09T12:22:01.290Z,56.42
2019-02-09T12:23:01.752Z,56.42
2019-02-09T12:24:02.200Z,56.21
2019-02-09T12:25:02.685Z,57.23
2019-02-09T12:26:03.128Z,57.03
2019-02-09T12:27:03.576Z,56.41
2019-02-09T12:28:04.019Z,53.12
2019-02-09T12:29:04.457Z,52.71
2019-02-09T12:30:04.888Z,52.79
2019-02-09T12:31:05.324Z,52.76
2019-02-09T12:32:05.781Z,53.14
2019-02-09T12:33:06.220Z,52.41
2019-02-09T12:34:06.658Z,52.61
2019-02-09T12:35:07.113Z,53.12
2019-02-09T12:36:07.563Z,53.34
2019-02-09T12:37:08.015Z,52.54
2019-02-09T12:38:08.507Z,53.19
2019-02-09T12:39:08.935Z,53.22
2019-02-09T12:40:09.380Z,53.55
2019-02-09T12:41:09.828Z,53.37
2019-02-09T12:42:11.390Z,54.79
2019-02-09T12:43:11.921Z,55.12
2019-02-09T12:44:12.445Z,55.76
2019-02-09T12:45:12.936Z,56.06
2019-02-09T12:46:13.379Z,55.76
2019-02-09T12:47:13.824Z,55.27
2019-02-09T12:48:14.309Z,55.45
2019-02-09T12:49:14.753Z,54.66
2019-02-09T12:50:15.246Z,55.18
2019-02-09T12:51:15.679Z,55.00
2019-02-09T12:52:16.249Z,55.10
2019-02-09T12:53:16.694Z,54.79
2019-02-09T12:54:17.220Z,55.18
2019-02-09T12:55:17.653Z,54.97
2019-02-09T12:56:18.097Z,55.02
2019-02-09T12:57:18.556Z,53.42
2019-02-09T12:58:18.982Z,53.93
2019-02-09T12:59:19.502Z,54.11
2019-02-09T13:00:20.025Z,54.00